sensor_id;sensor_type;location;lat;lon;timestamp;P1;P2;P0
45871;PMS5003;32333;55.844;-3.210;2023-04-07T00:01:51;0;0;
45871;PMS5003;32333;55.844;-3.210;2023-04-07T00:04:19;0;0;
45871;PMS5003;32333;55.844;-3.210;2023-04-07T00:06:46;0;0;
45871;PMS5003;32333;55.844;-3.210;2023-04-07T00:09:14;0;0;
45871;PMS5003;32333;55.844;-3.210;2023-04-07T00:11:41;0;0;
45871;PMS5003;32333;55.844;-3.210;2023-04-07T00:14:35;0;0;
45871;PMS5003;32333;55.844;-3.210;2023-04-07T00:17:03;0;0;
45871;PMS5003;32333;55.844;-3.210;2023-04-07T00:19:30;0;0;
45871;PMS5003;32333;55.844;-3.210;2023-04-07T00:21:59;0;0;
45871;PMS5003;32333;55.844;-3.210;2023-04-07T00:24:26;0;0;
45871;PMS5003;32333;55.844;-3.210;2023-04-07T00:26:54;0;0;
45871;PMS5003;32333;55.844;-3.210;2023-04-07T00:29:21;0;0;
45871;PMS5003;32333;55.844;-3.210;2023-04-07T00:31:49;0;0;
45871;PMS5003;32333;55.844;-3.210;2023-04-07T00:34:16;0;0;
45871;PMS5003;32333;55.844;-3.210;2023-04-07T00:36:44;0;0;
45871;PMS5003;32333;55.844;-3.210;2023-04-07T00:39:12;0;0;
45871;PMS5003;32333;55.844;-3.210;2023-04-07T00:41:40;0;0;
45871;PMS5003;32333;55.844;-3.210;2023-04-07T00:44:35;0;0;
45871;PMS5003;32333;55.844;-3.210;2023-04-07T00:47:03;0;0;
45871;PMS5003;32333;55.844;-3.210;2023-04-07T00:49:30;0;0;
45871;PMS5003;32333;55.844;-3.210;2023-04-07T00:51:59;0;0;
45871;PMS5003;32333;55.844;-3.210;2023-04-07T00:54:26;0;0;
45871;PMS5003;32333;55.844;-3.210;2023-04-07T00:56:56;0;0;
45871;PMS5003;32333;55.844;-3.210;2023-04-07T00:59:24;0;0;
45871;PMS5003;32333;55.844;-3.210;2023-04-07T01:01:54;0;0;
45871;PMS5003;32333;55.844;-3.210;2023-04-07T01:04:31;0;0;
45871;PMS5003;32333;55.844;-3.210;2023-04-07T01:07:03;0;0;
45871;PMS5003;32333;55.844;-3.210;2023-04-07T01:09:36;0;0;
45871;PMS5003;32333;55.844;-3.210;2023-04-07T01:14:39;0;0;
45871;PMS5003;32333;55.844;-3.210;2023-04-07T01:17:08;0;0;
45871;PMS5003;32333;55.844;-3.210;2023-04-07T01:19:39;0;0;
45871;PMS5003;32333;55.844;-3.210;2023-04-07T01:22:13;0;0;
45871;PMS5003;32333;55.844;-3.210;2023-04-07T01:24:52;0;0;
45871;PMS5003;32333;55.844;-3.210;2023-04-07T01:27:35;0;0;
45871;PMS5003;32333;55.844;-3.210;2023-04-07T01:30:09;0;0;
45871;PMS5003;32333;55.844;-3.210;2023-04-07T01:32:38;0;0;
45871;PMS5003;32333;55.844;-3.210;2023-04-07T01:35:10;0;0;
45871;PMS5003;32333;55.844;-3.210;2023-04-07T01:37:39;0;0;
45871;PMS5003;32333;55.844;-3.210;2023-04-07T01:40:08;0;0;
45871;PMS5003;32333;55.844;-3.210;2023-04-07T01:44:35;0;0;
45871;PMS5003;32333;55.844;-3.210;2023-04-07T01:47:04;0;0;
45871;PMS5003;32333;55.844;-3.210;2023-04-07T01:49:31;0;0;
45871;PMS5003;32333;55.844;-3.210;2023-04-07T01:52:01;0;0;
45871;PMS5003;32333;55.844;-3.210;2023-04-07T01:54:30;0;0;
45871;PMS5003;32333;55.844;-3.210;2023-04-07T01:56:59;0;0;
45871;PMS5003;32333;55.844;-3.210;2023-04-07T01:59:26;0;0;
45871;PMS5003;32333;55.844;-3.210;2023-04-07T02:01:54;0;0;
45871;PMS5003;32333;55.844;-3.210;2023-04-07T02:04:24;0;0;
45871;PMS5003;32333;55.844;-3.210;2023-04-07T02:06:58;0;0;
45871;PMS5003;32333;55.844;-3.210;2023-04-07T02:09:29;0;0;
45871;PMS5003;32333;55.844;-3.210;2023-04-07T02:11:59;0;0;
45871;PMS5003;32333;55.844;-3.210;2023-04-07T02:14:35;0;0;
45871;PMS5003;32333;55.844;-3.210;2023-04-07T02:17:04;0;0;
45871;PMS5003;32333;55.844;-3.210;2023-04-07T02:19:32;0;0;
45871;PMS5003;32333;55.844;-3.210;2023-04-07T02:22:00;0;0;
45871;PMS5003;32333;55.844;-3.210;2023-04-07T02:24:29;0;0;
45871;PMS5003;32333;55.844;-3.210;2023-04-07T02:26:57;0;0;
45871;PMS5003;32333;55.844;-3.210;2023-04-07T02:29:24;0;0;
45871;PMS5003;32333;55.844;-3.210;2023-04-07T02:31:52;0;0;
45871;PMS5003;32333;55.844;-3.210;2023-04-07T02:34:19;0;0;
45871;PMS5003;32333;55.844;-3.210;2023-04-07T02:36:50;0;0;
45871;PMS5003;32333;55.844;-3.210;2023-04-07T02:39:17;0;0;
45871;PMS5003;32333;55.844;-3.210;2023-04-07T02:41:46;0;0;
45871;PMS5003;32333;55.844;-3.210;2023-04-07T02:44:35;0;0;
45871;PMS5003;32333;55.844;-3.210;2023-04-07T02:47:03;0;0;
45871;PMS5003;32333;55.844;-3.210;2023-04-07T02:49:31;12;12;
45871;PMS5003;32333;55.844;-3.210;2023-04-07T02:51:59;0;0;
45871;PMS5003;32333;55.844;-3.210;2023-04-07T02:54:27;0;0;
45871;PMS5003;32333;55.844;-3.210;2023-04-07T02:56:55;0;0;
45871;PMS5003;32333;55.844;-3.210;2023-04-07T02:59:24;0;0;
45871;PMS5003;32333;55.844;-3.210;2023-04-07T03:01:51;0;0;
45871;PMS5003;32333;55.844;-3.210;2023-04-07T03:04:20;0;0;
45871;PMS5003;32333;55.844;-3.210;2023-04-07T03:06:48;0;0;
45871;PMS5003;32333;55.844;-3.210;2023-04-07T03:09:16;1;1;
45871;PMS5003;32333;55.844;-3.210;2023-04-07T03:11:43;3;3;
45871;PMS5003;32333;55.844;-3.210;2023-04-07T03:14:35;1;1;
45871;PMS5003;32333;55.844;-3.210;2023-04-07T03:17:03;7;7;
45871;PMS5003;32333;55.844;-3.210;2023-04-07T03:19:31;0;0;
45871;PMS5003;32333;55.844;-3.210;2023-04-07T03:21:59;0;0;
45871;PMS5003;32333;55.844;-3.210;2023-04-07T03:24:27;1;1;
45871;PMS5003;32333;55.844;-3.210;2023-04-07T03:26:55;0;0;
45871;PMS5003;32333;55.844;-3.210;2023-04-07T03:29:22;0;0;
45871;PMS5003;32333;55.844;-3.210;2023-04-07T03:31:50;0;0;
45871;PMS5003;32333;55.844;-3.210;2023-04-07T03:34:17;0;0;
45871;PMS5003;32333;55.844;-3.210;2023-04-07T03:36:45;0;0;
45871;PMS5003;32333;55.844;-3.210;2023-04-07T03:39:14;0;0;
45871;PMS5003;32333;55.844;-3.210;2023-04-07T03:41:41;0;0;
45871;PMS5003;32333;55.844;-3.210;2023-04-07T03:44:36;0;0;
45871;PMS5003;32333;55.844;-3.210;2023-04-07T03:47:03;0;0;
45871;PMS5003;32333;55.844;-3.210;2023-04-07T03:49:31;0;0;
45871;PMS5003;32333;55.844;-3.210;2023-04-07T03:51:58;0;0;
45871;PMS5003;32333;55.844;-3.210;2023-04-07T03:54:26;0;0;
45871;PMS5003;32333;55.844;-3.210;2023-04-07T03:56:54;6;6;
45871;PMS5003;32333;55.844;-3.210;2023-04-07T03:59:21;0;0;
45871;PMS5003;32333;55.844;-3.210;2023-04-07T04:01:48;0;0;
45871;PMS5003;32333;55.844;-3.210;2023-04-07T04:04:16;0;0;
45871;PMS5003;32333;55.844;-3.210;2023-04-07T04:06:44;0;0;
45871;PMS5003;32333;55.844;-3.210;2023-04-07T04:09:11;0;0;
45871;PMS5003;32333;55.844;-3.210;2023-04-07T04:11:39;0;0;
45871;PMS5003;32333;55.844;-3.210;2023-04-07T04:14:35;0;0;
45871;PMS5003;32333;55.844;-3.210;2023-04-07T04:17:03;0;0;
45871;PMS5003;32333;55.844;-3.210;2023-04-07T04:19:31;0;0;
45871;PMS5003;32333;55.844;-3.210;2023-04-07T04:21:59;0;0;
45871;PMS5003;32333;55.844;-3.210;2023-04-07T04:24:27;0;0;
45871;PMS5003;32333;55.844;-3.210;2023-04-07T04:26:55;0;0;
45871;PMS5003;32333;55.844;-3.210;2023-04-07T04:29:22;0;0;
45871;PMS5003;32333;55.844;-3.210;2023-04-07T04:31:50;0;0;
45871;PMS5003;32333;55.844;-3.210;2023-04-07T04:34:17;0;0;
45871;PMS5003;32333;55.844;-3.210;2023-04-07T04:36:45;0;0;
45871;PMS5003;32333;55.844;-3.210;2023-04-07T04:39:13;0;0;
45871;PMS5003;32333;55.844;-3.210;2023-04-07T04:41:40;0;0;
45871;PMS5003;32333;55.844;-3.210;2023-04-07T04:44:36;0;0;
45871;PMS5003;32333;55.844;-3.210;2023-04-07T04:47:03;0;0;
45871;PMS5003;32333;55.844;-3.210;2023-04-07T04:49:31;0;0;
45871;PMS5003;32333;55.844;-3.210;2023-04-07T04:52:00;0;0;
45871;PMS5003;32333;55.844;-3.210;2023-04-07T04:54:27;0;0;
45871;PMS5003;32333;55.844;-3.210;2023-04-07T04:56:55;1;1;
45871;PMS5003;32333;55.844;-3.210;2023-04-07T04:59:22;1;1;
45871;PMS5003;32333;55.844;-3.210;2023-04-07T05:01:50;3;1;
45871;PMS5003;32333;55.844;-3.210;2023-04-07T05:04:17;0;0;
45871;PMS5003;32333;55.844;-3.210;2023-04-07T05:06:44;0;0;
45871;PMS5003;32333;55.844;-3.210;2023-04-07T05:09:11;4;1;
45871;PMS5003;32333;55.844;-3.210;2023-04-07T05:11:39;0;0;
45871;PMS5003;32333;55.844;-3.210;2023-04-07T05:14:34;0;0;
45871;PMS5003;32333;55.844;-3.210;2023-04-07T05:17:01;3;1;
45871;PMS5003;32333;55.844;-3.210;2023-04-07T05:19:29;0;0;
45871;PMS5003;32333;55.844;-3.210;2023-04-07T05:21:56;1;1;
45871;PMS5003;32333;55.844;-3.210;2023-04-07T05:24:24;4;1;
45871;PMS5003;32333;55.844;-3.210;2023-04-07T05:26:52;1;0;
45871;PMS5003;32333;55.844;-3.210;2023-04-07T05:29:19;1;1;
45871;PMS5003;32333;55.844;-3.210;2023-04-07T05:31:47;0;0;
45871;PMS5003;32333;55.844;-3.210;2023-04-07T05:34:14;21;21;
45871;PMS5003;32333;55.844;-3.210;2023-04-07T05:36:42;18;15;
45871;PMS5003;32333;55.844;-3.210;2023-04-07T05:39:09;13;13;
45871;PMS5003;32333;55.844;-3.210;2023-04-07T05:41:37;12;12;
45871;PMS5003;32333;55.844;-3.210;2023-04-07T05:44:34;6;6;
45871;PMS5003;32333;55.844;-3.210;2023-04-07T05:47:01;10;9;
45871;PMS5003;32333;55.844;-3.210;2023-04-07T05:49:29;12;9;
45871;PMS5003;32333;55.844;-3.210;2023-04-07T05:51:56;7;7;
45871;PMS5003;32333;55.844;-3.210;2023-04-07T05:54:24;9;7;
45871;PMS5003;32333;55.844;-3.210;2023-04-07T05:56:51;4;1;
45871;PMS5003;32333;55.844;-3.210;2023-04-07T05:59:18;3;1;
45871;PMS5003;32333;55.844;-3.210;2023-04-07T06:01:46;0;0;
45871;PMS5003;32333;55.844;-3.210;2023-04-07T06:04:14;3;1;
45871;PMS5003;32333;55.844;-3.210;2023-04-07T06:06:41;4;4;
45871;PMS5003;32333;55.844;-3.210;2023-04-07T06:09:08;3;3;
45871;PMS5003;32333;55.844;-3.210;2023-04-07T06:11:36;1;0;
45871;PMS5003;32333;55.844;-3.210;2023-04-07T06:14:34;40;39;
45871;PMS5003;32333;55.844;-3.210;2023-04-07T06:17:01;46;46;
45871;PMS5003;32333;55.844;-3.210;2023-04-07T06:19:29;27;27;
45871;PMS5003;32333;55.844;-3.210;2023-04-07T06:21:56;10;10;
45871;PMS5003;32333;55.844;-3.210;2023-04-07T06:24:23;6;6;
45871;PMS5003;32333;55.844;-3.210;2023-04-07T06:26:51;1;1;
45871;PMS5003;32333;55.844;-3.210;2023-04-07T06:29:18;3;3;
45871;PMS5003;32333;55.844;-3.210;2023-04-07T06:31:45;1;1;
45871;PMS5003;32333;55.844;-3.210;2023-04-07T06:34:13;0;0;
45871;PMS5003;32333;55.844;-3.210;2023-04-07T06:36:40;1;0;
45871;PMS5003;32333;55.844;-3.210;2023-04-07T06:39:07;0;0;
45871;PMS5003;32333;55.844;-3.210;2023-04-07T06:41:35;0;0;
45871;PMS5003;32333;55.844;-3.210;2023-04-07T06:44:35;0;0;
45871;PMS5003;32333;55.844;-3.210;2023-04-07T06:47:03;3;3;
45871;PMS5003;32333;55.844;-3.210;2023-04-07T06:49:30;0;0;
45871;PMS5003;32333;55.844;-3.210;2023-04-07T06:51:57;4;1;
45871;PMS5003;32333;55.844;-3.210;2023-04-07T06:54:25;1;0;
45871;PMS5003;32333;55.844;-3.210;2023-04-07T06:56:53;6;1;
45871;PMS5003;32333;55.844;-3.210;2023-04-07T06:59:20;4;1;
45871;PMS5003;32333;55.844;-3.210;2023-04-07T07:01:47;3;1;
45871;PMS5003;32333;55.844;-3.210;2023-04-07T07:04:15;1;1;
45871;PMS5003;32333;55.844;-3.210;2023-04-07T07:06:42;1;1;
45871;PMS5003;32333;55.844;-3.210;2023-04-07T07:09:10;0;0;
45871;PMS5003;32333;55.844;-3.210;2023-04-07T07:11:37;0;0;
45871;PMS5003;32333;55.844;-3.210;2023-04-07T07:14:34;0;0;
45871;PMS5003;32333;55.844;-3.210;2023-04-07T07:17:01;0;0;
45871;PMS5003;32333;55.844;-3.210;2023-04-07T07:19:29;0;0;
45871;PMS5003;32333;55.844;-3.210;2023-04-07T07:21:57;0;0;
45871;PMS5003;32333;55.844;-3.210;2023-04-07T07:24:24;0;0;
45871;PMS5003;32333;55.844;-3.210;2023-04-07T07:26:51;0;0;
45871;PMS5003;32333;55.844;-3.210;2023-04-07T07:29:19;1;0;
45871;PMS5003;32333;55.844;-3.210;2023-04-07T07:31:46;0;0;
45871;PMS5003;32333;55.844;-3.210;2023-04-07T07:34:14;1;0;
45871;PMS5003;32333;55.844;-3.210;2023-04-07T07:36:41;1;1;
45871;PMS5003;32333;55.844;-3.210;2023-04-07T07:39:08;0;0;
45871;PMS5003;32333;55.844;-3.210;2023-04-07T07:41:35;0;0;
45871;PMS5003;32333;55.844;-3.210;2023-04-07T07:44:35;0;0;
45871;PMS5003;32333;55.844;-3.210;2023-04-07T07:47:03;0;0;
45871;PMS5003;32333;55.844;-3.210;2023-04-07T07:49:30;0;0;
45871;PMS5003;32333;55.844;-3.210;2023-04-07T07:51:59;0;0;
45871;PMS5003;32333;55.844;-3.210;2023-04-07T07:54:26;0;0;
45871;PMS5003;32333;55.844;-3.210;2023-04-07T07:56:53;0;0;
45871;PMS5003;32333;55.844;-3.210;2023-04-07T07:59:23;0;0;
45871;PMS5003;32333;55.844;-3.210;2023-04-07T08:01:50;0;0;
45871;PMS5003;32333;55.844;-3.210;2023-04-07T08:04:17;0;0;
45871;PMS5003;32333;55.844;-3.210;2023-04-07T08:06:45;0;0;
45871;PMS5003;32333;55.844;-3.210;2023-04-07T08:09:12;0;0;
45871;PMS5003;32333;55.844;-3.210;2023-04-07T08:11:40;0;0;
45871;PMS5003;32333;55.844;-3.210;2023-04-07T08:14:35;0;0;
45871;PMS5003;32333;55.844;-3.210;2023-04-07T08:17:02;0;0;
45871;PMS5003;32333;55.844;-3.210;2023-04-07T08:19:30;0;0;
45871;PMS5003;32333;55.844;-3.210;2023-04-07T08:21:58;0;0;
45871;PMS5003;32333;55.844;-3.210;2023-04-07T08:24:26;0;0;
45871;PMS5003;32333;55.844;-3.210;2023-04-07T08:26:54;4;0;
45871;PMS5003;32333;55.844;-3.210;2023-04-07T08:29:23;0;0;
45871;PMS5003;32333;55.844;-3.210;2023-04-07T08:31:50;0;0;
45871;PMS5003;32333;55.844;-3.210;2023-04-07T08:34:17;0;0;
45871;PMS5003;32333;55.844;-3.210;2023-04-07T08:36:46;0;0;
45871;PMS5003;32333;55.844;-3.210;2023-04-07T08:39:14;0;0;
45871;PMS5003;32333;55.844;-3.210;2023-04-07T08:41:41;0;0;
45871;PMS5003;32333;55.844;-3.210;2023-04-07T08:44:34;0;0;
45871;PMS5003;32333;55.844;-3.210;2023-04-07T08:47:03;0;0;
45871;PMS5003;32333;55.844;-3.210;2023-04-07T08:49:35;0;0;
45871;PMS5003;32333;55.844;-3.210;2023-04-07T08:52:05;0;0;
45871;PMS5003;32333;55.844;-3.210;2023-04-07T08:54:37;0;0;
45871;PMS5003;32333;55.844;-3.210;2023-04-07T08:57:07;0;0;
45871;PMS5003;32333;55.844;-3.210;2023-04-07T08:59:35;0;0;
45871;PMS5003;32333;55.844;-3.210;2023-04-07T09:02:03;0;0;
45871;PMS5003;32333;55.844;-3.210;2023-04-07T09:04:31;0;0;
45871;PMS5003;32333;55.844;-3.210;2023-04-07T09:06:58;0;0;
45871;PMS5003;32333;55.844;-3.210;2023-04-07T09:09:25;0;0;
45871;PMS5003;32333;55.844;-3.210;2023-04-07T09:11:54;0;0;
45871;PMS5003;32333;55.844;-3.210;2023-04-07T09:14:34;0;0;
45871;PMS5003;32333;55.844;-3.210;2023-04-07T09:17:05;0;0;
45871;PMS5003;32333;55.844;-3.210;2023-04-07T09:19:33;0;0;
45871;PMS5003;32333;55.844;-3.210;2023-04-07T09:22:00;0;0;
45871;PMS5003;32333;55.844;-3.210;2023-04-07T09:24:28;0;0;
45871;PMS5003;32333;55.844;-3.210;2023-04-07T09:27:08;0;0;
45871;PMS5003;32333;55.844;-3.210;2023-04-07T09:29:37;0;0;
45871;PMS5003;32333;55.844;-3.210;2023-04-07T09:32:06;0;0;
45871;PMS5003;32333;55.844;-3.210;2023-04-07T09:34:35;0;0;
45871;PMS5003;32333;55.844;-3.210;2023-04-07T09:37:05;0;0;
45871;PMS5003;32333;55.844;-3.210;2023-04-07T09:39:33;0;0;
45871;PMS5003;32333;55.844;-3.210;2023-04-07T09:44:39;0;0;
45871;PMS5003;32333;55.844;-3.210;2023-04-07T09:47:08;0;0;
45871;PMS5003;32333;55.844;-3.210;2023-04-07T09:49:47;0;0;
45871;PMS5003;32333;55.844;-3.210;2023-04-07T09:52:16;0;0;
45871;PMS5003;32333;55.844;-3.210;2023-04-07T09:54:45;0;0;
45871;PMS5003;32333;55.844;-3.210;2023-04-07T09:57:15;0;0;
45871;PMS5003;32333;55.844;-3.210;2023-04-07T09:59:44;0;0;
45871;PMS5003;32333;55.844;-3.210;2023-04-07T10:02:12;0;0;
45871;PMS5003;32333;55.844;-3.210;2023-04-07T10:04:39;0;0;
45871;PMS5003;32333;55.844;-3.210;2023-04-07T10:07:07;0;0;
45871;PMS5003;32333;55.844;-3.210;2023-04-07T10:09:34;0;0;
45871;PMS5003;32333;55.844;-3.210;2023-04-07T10:14:35;0;0;
45871;PMS5003;32333;55.844;-3.210;2023-04-07T10:17:03;0;0;
45871;PMS5003;32333;55.844;-3.210;2023-04-07T10:19:30;0;0;
45871;PMS5003;32333;55.844;-3.210;2023-04-07T10:21:58;0;0;
45871;PMS5003;32333;55.844;-3.210;2023-04-07T10:24:45;0;0;
45871;PMS5003;32333;55.844;-3.210;2023-04-07T10:27:32;0;0;
45871;PMS5003;32333;55.844;-3.210;2023-04-07T10:30:03;0;0;
45871;PMS5003;32333;55.844;-3.210;2023-04-07T10:32:44;0;0;
45871;PMS5003;32333;55.844;-3.210;2023-04-07T10:35:12;0;0;
45871;PMS5003;32333;55.844;-3.210;2023-04-07T10:37:40;0;0;
45871;PMS5003;32333;55.844;-3.210;2023-04-07T10:40:40;0;0;
45871;PMS5003;32333;55.844;-3.210;2023-04-07T10:44:52;0;0;
45871;PMS5003;32333;55.844;-3.210;2023-04-07T10:47:20;0;0;
45871;PMS5003;32333;55.844;-3.210;2023-04-07T10:50:20;0;0;
45871;PMS5003;32333;55.844;-3.210;2023-04-07T10:53:01;0;0;
45871;PMS5003;32333;55.844;-3.210;2023-04-07T10:55:32;0;0;
45871;PMS5003;32333;55.844;-3.210;2023-04-07T10:58:12;0;0;
45871;PMS5003;32333;55.844;-3.210;2023-04-07T11:00:41;0;0;
45871;PMS5003;32333;55.844;-3.210;2023-04-07T11:03:51;0;0;
45871;PMS5003;32333;55.844;-3.210;2023-04-07T11:06:22;0;0;
45871;PMS5003;32333;55.844;-3.210;2023-04-07T11:08:51;0;0;
45871;PMS5003;32333;55.844;-3.210;2023-04-07T11:11:20;0;0;
45871;PMS5003;32333;55.844;-3.210;2023-04-07T11:14:35;0;0;
45871;PMS5003;32333;55.844;-3.210;2023-04-07T11:17:02;0;0;
45871;PMS5003;32333;55.844;-3.210;2023-04-07T11:19:30;0;0;
45871;PMS5003;32333;55.844;-3.210;2023-04-07T11:22:15;0;0;
45871;PMS5003;32333;55.844;-3.210;2023-04-07T11:24:44;0;0;
45871;PMS5003;32333;55.844;-3.210;2023-04-07T11:27:12;0;0;
45871;PMS5003;32333;55.844;-3.210;2023-04-07T11:29:39;0;0;
45871;PMS5003;32333;55.844;-3.210;2023-04-07T11:32:07;0;0;
45871;PMS5003;32333;55.844;-3.210;2023-04-07T11:34:35;0;0;
45871;PMS5003;32333;55.844;-3.210;2023-04-07T11:37:17;0;0;
45871;PMS5003;32333;55.844;-3.210;2023-04-07T11:39:50;0;0;
45871;PMS5003;32333;55.844;-3.210;2023-04-07T11:44:34;0;0;
45871;PMS5003;32333;55.844;-3.210;2023-04-07T11:47:11;0;0;
45871;PMS5003;32333;55.844;-3.210;2023-04-07T11:49:43;0;0;
45871;PMS5003;32333;55.844;-3.210;2023-04-07T11:52:11;0;0;
45871;PMS5003;32333;55.844;-3.210;2023-04-07T11:54:40;0;0;
45871;PMS5003;32333;55.844;-3.210;2023-04-07T11:57:08;0;0;
45871;PMS5003;32333;55.844;-3.210;2023-04-07T11:59:36;0;0;
45871;PMS5003;32333;55.844;-3.210;2023-04-07T12:02:05;0;0;
45871;PMS5003;32333;55.844;-3.210;2023-04-07T12:04:33;0;0;
45871;PMS5003;32333;55.844;-3.210;2023-04-07T12:07:06;0;0;
45871;PMS5003;32333;55.844;-3.210;2023-04-07T12:09:34;0;0;
45871;PMS5003;32333;55.844;-3.210;2023-04-07T12:14:35;0;0;
45871;PMS5003;32333;55.844;-3.210;2023-04-07T12:17:03;0;0;
45871;PMS5003;32333;55.844;-3.210;2023-04-07T12:19:31;0;0;
45871;PMS5003;32333;55.844;-3.210;2023-04-07T12:21:59;0;0;
45871;PMS5003;32333;55.844;-3.210;2023-04-07T12:24:26;0;0;
45871;PMS5003;32333;55.844;-3.210;2023-04-07T12:26:53;0;0;
45871;PMS5003;32333;55.844;-3.210;2023-04-07T12:29:22;0;0;
45871;PMS5003;32333;55.844;-3.210;2023-04-07T12:31:49;0;0;
45871;PMS5003;32333;55.844;-3.210;2023-04-07T12:34:16;0;0;
45871;PMS5003;32333;55.844;-3.210;2023-04-07T12:36:45;0;0;
45871;PMS5003;32333;55.844;-3.210;2023-04-07T12:39:13;0;0;
45871;PMS5003;32333;55.844;-3.210;2023-04-07T12:41:42;0;0;
45871;PMS5003;32333;55.844;-3.210;2023-04-07T12:44:35;0;0;
45871;PMS5003;32333;55.844;-3.210;2023-04-07T12:47:03;1;0;
45871;PMS5003;32333;55.844;-3.210;2023-04-07T12:49:30;0;0;
45871;PMS5003;32333;55.844;-3.210;2023-04-07T12:51:59;0;0;
45871;PMS5003;32333;55.844;-3.210;2023-04-07T12:54:26;0;0;
45871;PMS5003;32333;55.844;-3.210;2023-04-07T12:56:55;1;1;
45871;PMS5003;32333;55.844;-3.210;2023-04-07T12:59:23;0;0;
45871;PMS5003;32333;55.844;-3.210;2023-04-07T13:01:51;0;0;
45871;PMS5003;32333;55.844;-3.210;2023-04-07T13:04:19;0;0;
45871;PMS5003;32333;55.844;-3.210;2023-04-07T13:06:48;1;1;
45871;PMS5003;32333;55.844;-3.210;2023-04-07T13:09:17;0;0;
45871;PMS5003;32333;55.844;-3.210;2023-04-07T13:11:45;0;0;
45871;PMS5003;32333;55.844;-3.210;2023-04-07T13:14:36;0;0;
45871;PMS5003;32333;55.844;-3.210;2023-04-07T13:17:04;0;0;
45871;PMS5003;32333;55.844;-3.210;2023-04-07T13:19:32;0;0;
45871;PMS5003;32333;55.844;-3.210;2023-04-07T13:21:59;0;0;
45871;PMS5003;32333;55.844;-3.210;2023-04-07T13:24:28;0;0;
45871;PMS5003;32333;55.844;-3.210;2023-04-07T13:26:55;0;0;
45871;PMS5003;32333;55.844;-3.210;2023-04-07T13:29:23;0;0;
45871;PMS5003;32333;55.844;-3.210;2023-04-07T13:31:50;0;0;
45871;PMS5003;32333;55.844;-3.210;2023-04-07T13:34:18;0;0;
45871;PMS5003;32333;55.844;-3.210;2023-04-07T13:36:45;0;0;
45871;PMS5003;32333;55.844;-3.210;2023-04-07T13:39:13;0;0;
45871;PMS5003;32333;55.844;-3.210;2023-04-07T13:41:41;0;0;
45871;PMS5003;32333;55.844;-3.210;2023-04-07T13:44:35;0;0;
45871;PMS5003;32333;55.844;-3.210;2023-04-07T13:47:03;0;0;
45871;PMS5003;32333;55.844;-3.210;2023-04-07T13:49:30;0;0;
45871;PMS5003;32333;55.844;-3.210;2023-04-07T13:51:58;0;0;
45871;PMS5003;32333;55.844;-3.210;2023-04-07T13:54:26;0;0;
45871;PMS5003;32333;55.844;-3.210;2023-04-07T13:56:53;0;0;
45871;PMS5003;32333;55.844;-3.210;2023-04-07T13:59:22;0;0;
45871;PMS5003;32333;55.844;-3.210;2023-04-07T14:01:50;0;0;
45871;PMS5003;32333;55.844;-3.210;2023-04-07T14:04:17;0;0;
45871;PMS5003;32333;55.844;-3.210;2023-04-07T14:06:46;0;0;
45871;PMS5003;32333;55.844;-3.210;2023-04-07T14:09:13;0;0;
45871;PMS5003;32333;55.844;-3.210;2023-04-07T14:11:40;0;0;
45871;PMS5003;32333;55.844;-3.210;2023-04-07T14:14:35;0;0;
45871;PMS5003;32333;55.844;-3.210;2023-04-07T14:17:03;0;0;
45871;PMS5003;32333;55.844;-3.210;2023-04-07T14:19:32;0;0;
45871;PMS5003;32333;55.844;-3.210;2023-04-07T14:22:01;0;0;
45871;PMS5003;32333;55.844;-3.210;2023-04-07T14:24:28;0;0;
45871;PMS5003;32333;55.844;-3.210;2023-04-07T14:26:55;0;0;
45871;PMS5003;32333;55.844;-3.210;2023-04-07T14:29:23;0;0;
45871;PMS5003;32333;55.844;-3.210;2023-04-07T14:31:50;1;1;
45871;PMS5003;32333;55.844;-3.210;2023-04-07T14:34:17;0;0;
45871;PMS5003;32333;55.844;-3.210;2023-04-07T14:36:51;0;0;
45871;PMS5003;32333;55.844;-3.210;2023-04-07T14:39:21;0;0;
45871;PMS5003;32333;55.844;-3.210;2023-04-07T14:41:48;0;0;
45871;PMS5003;32333;55.844;-3.210;2023-04-07T14:44:35;0;0;
45871;PMS5003;32333;55.844;-3.210;2023-04-07T14:47:02;0;0;
45871;PMS5003;32333;55.844;-3.210;2023-04-07T14:49:30;0;0;
45871;PMS5003;32333;55.844;-3.210;2023-04-07T14:51:58;0;0;
45871;PMS5003;32333;55.844;-3.210;2023-04-07T14:54:26;0;0;
45871;PMS5003;32333;55.844;-3.210;2023-04-07T14:56:53;0;0;
45871;PMS5003;32333;55.844;-3.210;2023-04-07T14:59:21;0;0;
45871;PMS5003;32333;55.844;-3.210;2023-04-07T15:01:49;0;0;
45871;PMS5003;32333;55.844;-3.210;2023-04-07T15:04:16;0;0;
45871;PMS5003;32333;55.844;-3.210;2023-04-07T15:06:45;0;0;
45871;PMS5003;32333;55.844;-3.210;2023-04-07T15:09:12;0;0;
45871;PMS5003;32333;55.844;-3.210;2023-04-07T15:11:39;0;0;
45871;PMS5003;32333;55.844;-3.210;2023-04-07T15:14:35;0;0;
45871;PMS5003;32333;55.844;-3.210;2023-04-07T15:17:02;0;0;
45871;PMS5003;32333;55.844;-3.210;2023-04-07T15:19:29;0;0;
45871;PMS5003;32333;55.844;-3.210;2023-04-07T15:21:57;0;0;
45871;PMS5003;32333;55.844;-3.210;2023-04-07T15:24:25;0;0;
45871;PMS5003;32333;55.844;-3.210;2023-04-07T15:26:52;0;0;
45871;PMS5003;32333;55.844;-3.210;2023-04-07T15:29:19;1;1;
45871;PMS5003;32333;55.844;-3.210;2023-04-07T15:31:47;0;0;
45871;PMS5003;32333;55.844;-3.210;2023-04-07T15:34:14;0;0;
45871;PMS5003;32333;55.844;-3.210;2023-04-07T15:36:42;0;0;
45871;PMS5003;32333;55.844;-3.210;2023-04-07T15:39:10;0;0;
45871;PMS5003;32333;55.844;-3.210;2023-04-07T15:41:37;0;0;
45871;PMS5003;32333;55.844;-3.210;2023-04-07T15:44:34;0;0;
45871;PMS5003;32333;55.844;-3.210;2023-04-07T15:47:02;0;0;
45871;PMS5003;32333;55.844;-3.210;2023-04-07T15:49:29;0;0;
45871;PMS5003;32333;55.844;-3.210;2023-04-07T15:51:57;0;0;
45871;PMS5003;32333;55.844;-3.210;2023-04-07T15:54:25;0;0;
45871;PMS5003;32333;55.844;-3.210;2023-04-07T15:56:53;0;0;
45871;PMS5003;32333;55.844;-3.210;2023-04-07T15:59:21;0;0;
45871;PMS5003;32333;55.844;-3.210;2023-04-07T16:01:48;0;0;
45871;PMS5003;32333;55.844;-3.210;2023-04-07T16:04:16;0;0;
45871;PMS5003;32333;55.844;-3.210;2023-04-07T16:06:45;0;0;
45871;PMS5003;32333;55.844;-3.210;2023-04-07T16:09:12;0;0;
45871;PMS5003;32333;55.844;-3.210;2023-04-07T16:11:39;0;0;
45871;PMS5003;32333;55.844;-3.210;2023-04-07T16:14:34;0;0;
45871;PMS5003;32333;55.844;-3.210;2023-04-07T16:17:02;0;0;
45871;PMS5003;32333;55.844;-3.210;2023-04-07T16:19:29;0;0;
45871;PMS5003;32333;55.844;-3.210;2023-04-07T16:21:58;1;0;
45871;PMS5003;32333;55.844;-3.210;2023-04-07T16:24:26;0;0;
45871;PMS5003;32333;55.844;-3.210;2023-04-07T16:26:53;0;0;
45871;PMS5003;32333;55.844;-3.210;2023-04-07T16:29:21;0;0;
45871;PMS5003;32333;55.844;-3.210;2023-04-07T16:31:48;0;0;
45871;PMS5003;32333;55.844;-3.210;2023-04-07T16:34:16;0;0;
45871;PMS5003;32333;55.844;-3.210;2023-04-07T16:36:43;0;0;
45871;PMS5003;32333;55.844;-3.210;2023-04-07T16:39:11;0;0;
45871;PMS5003;32333;55.844;-3.210;2023-04-07T16:41:38;0;0;
45871;PMS5003;32333;55.844;-3.210;2023-04-07T16:44:35;0;0;
45871;PMS5003;32333;55.844;-3.210;2023-04-07T16:47:02;0;0;
45871;PMS5003;32333;55.844;-3.210;2023-04-07T16:49:29;0;0;
45871;PMS5003;32333;55.844;-3.210;2023-04-07T16:51:58;0;0;
45871;PMS5003;32333;55.844;-3.210;2023-04-07T16:54:25;0;0;
45871;PMS5003;32333;55.844;-3.210;2023-04-07T16:56:52;0;0;
45871;PMS5003;32333;55.844;-3.210;2023-04-07T16:59:21;0;0;
45871;PMS5003;32333;55.844;-3.210;2023-04-07T17:01:49;0;0;
45871;PMS5003;32333;55.844;-3.210;2023-04-07T17:04:16;0;0;
45871;PMS5003;32333;55.844;-3.210;2023-04-07T17:06:43;0;0;
45871;PMS5003;32333;55.844;-3.210;2023-04-07T17:09:11;0;0;
45871;PMS5003;32333;55.844;-3.210;2023-04-07T17:11:40;0;0;